sensor_id;sensor_type;location;lat;lon;timestamp;P1;durP1;ratioP1;P2;durP2;ratioP2
18983;SDS011;9626;52.552;13.436;2023-03-11T00:01:06;14.60;;;10.83;;
18983;SDS011;9626;52.552;13.436;2023-03-11T00:03:32;16.50;;;11.83;;
18983;SDS011;9626;52.552;13.436;2023-03-11T00:05:59;16.90;;;12.23;;
18983;SDS011;9626;52.552;13.436;2023-03-11T00:08:26;15.50;;;11.57;;
18983;SDS011;9626;52.552;13.436;2023-03-11T00:10:53;16.07;;;11.63;;
18983;SDS011;9626;52.552;13.436;2023-03-11T00:13:21;14.83;;;11.40;;
18983;SDS011;9626;52.552;13.436;2023-03-11T00:15:48;15.23;;;11.13;;
18983;SDS011;9626;52.552;13.436;2023-03-11T00:18:16;14.50;;;11.17;;
18983;SDS011;9626;52.552;13.436;2023-03-11T00:20:43;17.27;;;12.33;;
18983;SDS011;9626;52.552;13.436;2023-03-11T00:23:12;16.57;;;12.07;;
18983;SDS011;9626;52.552;13.436;2023-03-11T00:25:39;14.97;;;11.27;;
18983;SDS011;9626;52.552;13.436;2023-03-11T00:28:05;15.00;;;11.97;;
18983;SDS011;9626;52.552;13.436;2023-03-11T00:30:32;14.47;;;11.00;;
18983;SDS011;9626;52.552;13.436;2023-03-11T00:32:58;14.20;;;11.50;;
18983;SDS011;9626;52.552;13.436;2023-03-11T00:35:43;14.90;;;10.40;;
18983;SDS011;9626;52.552;13.436;2023-03-11T00:38:11;12.53;;;9.67;;
18983;SDS011;9626;52.552;13.436;2023-03-11T00:40:39;14.13;;;9.97;;
18983;SDS011;9626;52.552;13.436;2023-03-11T00:43:06;12.87;;;10.07;;
18983;SDS011;9626;52.552;13.436;2023-03-11T00:45:32;11.77;;;9.10;;
18983;SDS011;9626;52.552;13.436;2023-03-11T00:47:58;11.33;;;9.30;;
18983;SDS011;9626;52.552;13.436;2023-03-11T00:50:26;11.87;;;9.40;;
18983;SDS011;9626;52.552;13.436;2023-03-11T00:52:57;11.10;;;9.40;;
18983;SDS011;9626;52.552;13.436;2023-03-11T00:55:25;10.73;;;8.63;;
18983;SDS011;9626;52.552;13.436;2023-03-11T00:57:54;10.37;;;8.97;;
18983;SDS011;9626;52.552;13.436;2023-03-11T01:00:22;10.60;;;9.13;;
18983;SDS011;9626;52.552;13.436;2023-03-11T01:02:50;12.10;;;9.57;;
18983;SDS011;9626;52.552;13.436;2023-03-11T01:05:19;14.83;;;10.10;;
18983;SDS011;9626;52.552;13.436;2023-03-11T01:07:47;11.10;;;9.07;;
18983;SDS011;9626;52.552;13.436;2023-03-11T01:10:13;12.07;;;9.90;;
18983;SDS011;9626;52.552;13.436;2023-03-11T01:12:40;11.03;;;9.83;;
18983;SDS011;9626;52.552;13.436;2023-03-11T01:15:08;12.50;;;10.00;;
18983;SDS011;9626;52.552;13.436;2023-03-11T01:17:47;13.60;;;11.20;;
18983;SDS011;9626;52.552;13.436;2023-03-11T01:20:13;13.00;;;11.10;;
18983;SDS011;9626;52.552;13.436;2023-03-11T01:22:39;13.23;;;10.63;;
18983;SDS011;9626;52.552;13.436;2023-03-11T01:25:06;13.63;;;10.60;;
18983;SDS011;9626;52.552;13.436;2023-03-11T01:27:43;12.07;;;10.10;;
18983;SDS011;9626;52.552;13.436;2023-03-11T01:30:11;12.97;;;10.77;;
18983;SDS011;9626;52.552;13.436;2023-03-11T01:32:40;12.53;;;10.60;;
18983;SDS011;9626;52.552;13.436;2023-03-11T01:35:06;11.77;;;10.17;;
18983;SDS011;9626;52.552;13.436;2023-03-11T01:37:32;11.70;;;10.47;;
18983;SDS011;9626;52.552;13.436;2023-03-11T01:40:14;11.73;;;9.73;;
18983;SDS011;9626;52.552;13.436;2023-03-11T01:42:46;10.13;;;8.43;;
18983;SDS011;9626;52.552;13.436;2023-03-11T01:48:08;7.87;;;6.80;;
18983;SDS011;9626;52.552;13.436;2023-03-11T01:50:39;7.37;;;6.27;;
18983;SDS011;9626;52.552;13.436;2023-03-11T01:53:27;5.83;;;5.23;;
18983;SDS011;9626;52.552;13.436;2023-03-11T01:55:53;6.70;;;5.23;;
18983;SDS011;9626;52.552;13.436;2023-03-11T01:58:22;4.47;;;4.00;;
18983;SDS011;9626;52.552;13.436;2023-03-11T02:00:51;4.97;;;4.07;;
18983;SDS011;9626;52.552;13.436;2023-03-11T02:03:29;3.93;;;3.50;;
18983;SDS011;9626;52.552;13.436;2023-03-11T02:05:59;3.20;;;2.90;;
18983;SDS011;9626;52.552;13.436;2023-03-11T02:08:27;2.83;;;2.30;;
18983;SDS011;9626;52.552;13.436;2023-03-11T02:10:54;2.40;;;2.20;;
18983;SDS011;9626;52.552;13.436;2023-03-11T02:13:22;2.57;;;2.03;;
18983;SDS011;9626;52.552;13.436;2023-03-11T02:15:48;2.33;;;2.13;;
18983;SDS011;9626;52.552;13.436;2023-03-11T02:18:14;1.90;;;1.60;;
18983;SDS011;9626;52.552;13.436;2023-03-11T02:23:45;1.50;;;1.40;;
18983;SDS011;9626;52.552;13.436;2023-03-11T02:26:22;1.53;;;1.43;;
18983;SDS011;9626;52.552;13.436;2023-03-11T02:28:54;1.40;;;1.30;;
18983;SDS011;9626;52.552;13.436;2023-03-11T02:31:35;1.30;;;1.20;;
18983;SDS011;9626;52.552;13.436;2023-03-11T02:34:03;1.13;;;1.10;;
18983;SDS011;9626;52.552;13.436;2023-03-11T02:36:33;1.30;;;1.20;;
18983;SDS011;9626;52.552;13.436;2023-03-11T02:39:29;1.27;;;1.20;;
18983;SDS011;9626;52.552;13.436;2023-03-11T02:42:45;2.03;;;1.47;;
18983;SDS011;9626;52.552;13.436;2023-03-11T02:45:13;1.90;;;1.40;;
18983;SDS011;9626;52.552;13.436;2023-03-11T02:47:40;1.40;;;1.30;;
18983;SDS011;9626;52.552;13.436;2023-03-11T02:50:08;1.57;;;1.47;;
18983;SDS011;9626;52.552;13.436;2023-03-11T02:52:36;1.20;;;1.10;;
18983;SDS011;9626;52.552;13.436;2023-03-11T02:55:21;1.50;;;1.40;;
18983;SDS011;9626;52.552;13.436;2023-03-11T02:57:51;1.50;;;1.40;;
18983;SDS011;9626;52.552;13.436;2023-03-11T03:00:17;1.50;;;1.40;;
18983;SDS011;9626;52.552;13.436;2023-03-11T03:02:44;1.40;;;1.30;;
18983;SDS011;9626;52.552;13.436;2023-03-11T03:05:13;1.50;;;1.40;;
18983;SDS011;9626;52.552;13.436;2023-03-11T03:07:39;1.53;;;1.27;;
18983;SDS011;9626;52.552;13.436;2023-03-11T03:10:05;1.30;;;1.20;;
18983;SDS011;9626;52.552;13.436;2023-03-11T03:12:32;1.40;;;1.30;;
18983;SDS011;9626;52.552;13.436;2023-03-11T03:14:58;1.73;;;1.63;;
18983;SDS011;9626;52.552;13.436;2023-03-11T03:17:25;2.07;;;1.30;;
18983;SDS011;9626;52.552;13.436;2023-03-11T03:19:51;2.07;;;1.57;;
18983;SDS011;9626;52.552;13.436;2023-03-11T03:22:17;2.00;;;1.90;;
18983;SDS011;9626;52.552;13.436;2023-03-11T03:24:44;1.60;;;1.50;;
18983;SDS011;9626;52.552;13.436;2023-03-11T03:27:13;2.10;;;1.90;;
18983;SDS011;9626;52.552;13.436;2023-03-11T03:29:39;3.40;;;2.00;;
18983;SDS011;9626;52.552;13.436;2023-03-11T03:32:05;2.20;;;2.00;;
18983;SDS011;9626;52.552;13.436;2023-03-11T03:34:49;2.00;;;1.90;;
18983;SDS011;9626;52.552;13.436;2023-03-11T03:37:22;2.17;;;1.97;;
18983;SDS011;9626;52.552;13.436;2023-03-11T03:39:49;2.83;;;2.13;;
18983;SDS011;9626;52.552;13.436;2023-03-11T03:42:15;2.33;;;2.13;;
18983;SDS011;9626;52.552;13.436;2023-03-11T03:44:59;2.07;;;1.70;;
18983;SDS011;9626;52.552;13.436;2023-03-11T03:47:25;2.20;;;2.00;;
18983;SDS011;9626;52.552;13.436;2023-03-11T03:50:10;2.20;;;2.00;;
18983;SDS011;9626;52.552;13.436;2023-03-11T03:52:51;2.43;;;2.20;;
18983;SDS011;9626;52.552;13.436;2023-03-11T03:55:18;2.50;;;2.23;;
18983;SDS011;9626;52.552;13.436;2023-03-11T03:58:03;2.53;;;2.27;;
18983;SDS011;9626;52.552;13.436;2023-03-11T04:00:29;2.47;;;2.27;;
18983;SDS011;9626;52.552;13.436;2023-03-11T04:02:58;3.10;;;2.43;;
18983;SDS011;9626;52.552;13.436;2023-03-11T04:05:25;2.33;;;2.13;;
18983;SDS011;9626;52.552;13.436;2023-03-11T04:07:52;2.90;;;2.37;;
18983;SDS011;9626;52.552;13.436;2023-03-11T04:10:19;3.23;;;2.70;;
18983;SDS011;9626;52.552;13.436;2023-03-11T04:13:03;2.70;;;2.50;;
18983;SDS011;9626;52.552;13.436;2023-03-11T04:15:29;4.17;;;2.80;;
18983;SDS011;9626;52.552;13.436;2023-03-11T04:17:55;2.43;;;2.23;;
18983;SDS011;9626;52.552;13.436;2023-03-11T04:20:21;4.57;;;2.70;;
18983;SDS011;9626;52.552;13.436;2023-03-11T04:22:47;2.77;;;2.50;;
18983;SDS011;9626;52.552;13.436;2023-03-11T04:25:32;3.23;;;2.93;;
18983;SDS011;9626;52.552;13.436;2023-03-11T04:28:17;3.87;;;2.93;;
18983;SDS011;9626;52.552;13.436;2023-03-11T04:31:03;2.90;;;2.60;;
18983;SDS011;9626;52.552;13.436;2023-03-11T04:33:29;4.03;;;2.77;;
18983;SDS011;9626;52.552;13.436;2023-03-11T04:36:14;3.20;;;2.90;;
18983;SDS011;9626;52.552;13.436;2023-03-11T04:38:58;4.23;;;3.03;;
18983;SDS011;9626;52.552;13.436;2023-03-11T04:41:42;4.30;;;3.13;;
18983;SDS011;9626;52.552;13.436;2023-03-11T04:44:29;3.40;;;3.03;;
18983;SDS011;9626;52.552;13.436;2023-03-11T04:47:14;4.00;;;3.03;;
18983;SDS011;9626;52.552;13.436;2023-03-11T04:49:41;4.10;;;3.13;;
18983;SDS011;9626;52.552;13.436;2023-03-11T04:52:07;3.00;;;2.70;;
18983;SDS011;9626;52.552;13.436;2023-03-11T04:54:33;4.00;;;3.13;;
18983;SDS011;9626;52.552;13.436;2023-03-11T04:57:18;4.40;;;3.07;;
18983;SDS011;9626;52.552;13.436;2023-03-11T04:59:44;4.80;;;3.10;;
18983;SDS011;9626;52.552;13.436;2023-03-11T05:02:28;3.60;;;2.90;;
18983;SDS011;9626;52.552;13.436;2023-03-11T05:05:12;3.03;;;2.70;;
18983;SDS011;9626;52.552;13.436;2023-03-11T05:07:41;2.80;;;2.50;;
18983;SDS011;9626;52.552;13.436;2023-03-11T05:10:25;3.93;;;2.47;;
18983;SDS011;9626;52.552;13.436;2023-03-11T05:12:51;3.00;;;2.70;;
18983;SDS011;9626;52.552;13.436;2023-03-11T05:15:35;2.70;;;2.47;;
18983;SDS011;9626;52.552;13.436;2023-03-11T05:18:02;2.43;;;2.23;;
18983;SDS011;9626;52.552;13.436;2023-03-11T05:20:29;4.13;;;3.30;;
18983;SDS011;9626;52.552;13.436;2023-03-11T05:22:57;3.53;;;2.70;;
18983;SDS011;9626;52.552;13.436;2023-03-11T05:25:23;2.80;;;2.50;;
18983;SDS011;9626;52.552;13.436;2023-03-11T05:28:01;4.30;;;2.73;;
18983;SDS011;9626;52.552;13.436;2023-03-11T05:30:46;2.97;;;2.67;;
18983;SDS011;9626;52.552;13.436;2023-03-11T05:33:12;2.60;;;2.40;;
18983;SDS011;9626;52.552;13.436;2023-03-11T05:36:02;2.77;;;2.30;;
18983;SDS011;9626;52.552;13.436;2023-03-11T05:38:33;3.13;;;2.20;;
18983;SDS011;9626;52.552;13.436;2023-03-11T05:41:18;2.77;;;2.50;;
18983;SDS011;9626;52.552;13.436;2023-03-11T05:44:03;3.37;;;2.60;;
18983;SDS011;9626;52.552;13.436;2023-03-11T05:46:47;4.20;;;2.40;;
18983;SDS011;9626;52.552;13.436;2023-03-11T05:49:32;3.63;;;2.40;;
18983;SDS011;9626;52.552;13.436;2023-03-11T05:51:58;3.00;;;2.60;;
18983;SDS011;9626;52.552;13.436;2023-03-11T05:54:42;2.93;;;2.53;;
18983;SDS011;9626;52.552;13.436;2023-03-11T05:57:08;2.90;;;2.43;;
18983;SDS011;9626;52.552;13.436;2023-03-11T05:59:52;2.83;;;2.50;;
18983;SDS011;9626;52.552;13.436;2023-03-11T06:02:38;2.67;;;2.43;;
18983;SDS011;9626;52.552;13.436;2023-03-11T06:05:22;3.67;;;2.93;;
18983;SDS011;9626;52.552;13.436;2023-03-11T06:08:07;3.10;;;2.80;;
18983;SDS011;9626;52.552;13.436;2023-03-11T06:10:51;3.90;;;2.93;;
18983;SDS011;9626;52.552;13.436;2023-03-11T06:13:35;4.20;;;2.70;;
18983;SDS011;9626;52.552;13.436;2023-03-11T06:16:03;4.53;;;2.87;;
18983;SDS011;9626;52.552;13.436;2023-03-11T06:18:29;4.07;;;2.63;;
18983;SDS011;9626;52.552;13.436;2023-03-11T06:21:14;4.40;;;2.80;;
18983;SDS011;9626;52.552;13.436;2023-03-11T06:24:01;3.20;;;2.57;;
18983;SDS011;9626;52.552;13.436;2023-03-11T06:26:45;3.67;;;2.90;;
18983;SDS011;9626;52.552;13.436;2023-03-11T06:29:34;4.17;;;2.87;;
18983;SDS011;9626;52.552;13.436;2023-03-11T06:32:10;3.37;;;3.00;;
18983;SDS011;9626;52.552;13.436;2023-03-11T06:34:54;5.73;;;3.43;;
18983;SDS011;9626;52.552;13.436;2023-03-11T06:37:35;5.37;;;3.73;;
18983;SDS011;9626;52.552;13.436;2023-03-11T06:40:02;4.97;;;4.30;;
18983;SDS011;9626;52.552;13.436;2023-03-11T06:42:30;5.33;;;4.10;;
18983;SDS011;9626;52.552;13.436;2023-03-11T06:45:01;5.13;;;3.83;;
18983;SDS011;9626;52.552;13.436;2023-03-11T06:47:46;6.03;;;3.77;;
18983;SDS011;9626;52.552;13.436;2023-03-11T06:50:18;5.80;;;4.37;;
18983;SDS011;9626;52.552;13.436;2023-03-11T06:52:44;6.20;;;4.63;;
18983;SDS011;9626;52.552;13.436;2023-03-11T06:55:28;7.40;;;4.40;;
18983;SDS011;9626;52.552;13.436;2023-03-11T06:57:56;11.57;;;4.37;;
18983;SDS011;9626;52.552;13.436;2023-03-11T07:00:22;7.20;;;4.70;;
18983;SDS011;9626;52.552;13.436;2023-03-11T07:02:48;6.47;;;4.60;;
18983;SDS011;9626;52.552;13.436;2023-03-11T07:05:14;6.53;;;4.60;;
18983;SDS011;9626;52.552;13.436;2023-03-11T07:07:59;5.07;;;4.23;;
18983;SDS011;9626;52.552;13.436;2023-03-11T07:10:25;6.03;;;4.27;;
18983;SDS011;9626;52.552;13.436;2023-03-11T07:13:10;9.10;;;4.27;;
18983;SDS011;9626;52.552;13.436;2023-03-11T07:15:36;5.63;;;4.50;;
18983;SDS011;9626;52.552;13.436;2023-03-11T07:18:02;4.67;;;3.73;;
18983;SDS011;9626;52.552;13.436;2023-03-11T07:20:28;5.53;;;3.90;;
18983;SDS011;9626;52.552;13.436;2023-03-11T07:23:13;6.87;;;4.13;;
18983;SDS011;9626;52.552;13.436;2023-03-11T07:25:44;4.67;;;3.77;;
18983;SDS011;9626;52.552;13.436;2023-03-11T07:28:11;4.80;;;3.70;;
18983;SDS011;9626;52.552;13.436;2023-03-11T07:30:40;5.77;;;4.20;;
18983;SDS011;9626;52.552;13.436;2023-03-11T07:33:06;6.10;;;3.90;;
18983;SDS011;9626;52.552;13.436;2023-03-11T07:35:45;5.03;;;3.67;;
18983;SDS011;9626;52.552;13.436;2023-03-11T07:38:14;7.60;;;3.93;;
18983;SDS011;9626;52.552;13.436;2023-03-11T07:40:42;4.97;;;3.60;;
18983;SDS011;9626;52.552;13.436;2023-03-11T07:43:08;5.03;;;3.37;;
18983;SDS011;9626;52.552;13.436;2023-03-11T07:48:30;6.27;;;3.93;;
18983;SDS011;9626;52.552;13.436;2023-03-11T07:51:16;6.30;;;4.43;;
18983;SDS011;9626;52.552;13.436;2023-03-11T07:54:03;7.47;;;4.67;;
18983;SDS011;9626;52.552;13.436;2023-03-11T07:56:48;6.37;;;4.30;;
18983;SDS011;9626;52.552;13.436;2023-03-11T07:59:15;6.60;;;4.33;;
18983;SDS011;9626;52.552;13.436;2023-03-11T08:02:01;6.23;;;4.97;;
18983;SDS011;9626;52.552;13.436;2023-03-11T08:04:46;8.77;;;4.17;;
18983;SDS011;9626;52.552;13.436;2023-03-11T08:07:30;5.87;;;3.97;;
18983;SDS011;9626;52.552;13.436;2023-03-11T08:09:57;8.10;;;4.17;;
18983;SDS011;9626;52.552;13.436;2023-03-11T08:12:23;7.50;;;4.67;;
18983;SDS011;9626;52.552;13.436;2023-03-11T08:15:08;6.73;;;4.10;;
18983;SDS011;9626;52.552;13.436;2023-03-11T08:17:34;8.03;;;4.87;;
18983;SDS011;9626;52.552;13.436;2023-03-11T08:20:01;5.07;;;4.23;;
18983;SDS011;9626;52.552;13.436;2023-03-11T08:22:45;7.30;;;5.10;;
18983;SDS011;9626;52.552;13.436;2023-03-11T08:25:30;7.93;;;5.20;;
18983;SDS011;9626;52.552;13.436;2023-03-11T08:28:02;6.50;;;4.97;;
18983;SDS011;9626;52.552;13.436;2023-03-11T08:30:29;7.67;;;5.30;;
18983;SDS011;9626;52.552;13.436;2023-03-11T08:32:55;8.10;;;5.73;;
18983;SDS011;9626;52.552;13.436;2023-03-11T08:35:21;8.33;;;5.20;;
18983;SDS011;9626;52.552;13.436;2023-03-11T08:38:06;9.30;;;5.47;;
18983;SDS011;9626;52.552;13.436;2023-03-11T08:40:32;9.30;;;7.37;;
18983;SDS011;9626;52.552;13.436;2023-03-11T08:42:58;7.90;;;5.20;;
18983;SDS011;9626;52.552;13.436;2023-03-11T08:45:42;6.90;;;4.93;;
18983;SDS011;9626;52.552;13.436;2023-03-11T08:48:09;8.50;;;4.90;;
18983;SDS011;9626;52.552;13.436;2023-03-11T08:50:39;7.37;;;4.70;;
18983;SDS011;9626;52.552;13.436;2023-03-11T08:53:24;5.47;;;4.30;;
18983;SDS011;9626;52.552;13.436;2023-03-11T08:56:08;6.10;;;4.60;;
18983;SDS011;9626;52.552;13.436;2023-03-11T08:58:34;7.47;;;5.00;;
18983;SDS011;9626;52.552;13.436;2023-03-11T09:01:10;7.17;;;4.33;;
18983;SDS011;9626;52.552;13.436;2023-03-11T09:03:56;6.67;;;4.60;;
18983;SDS011;9626;52.552;13.436;2023-03-11T09:06:41;9.00;;;5.10;;
18983;SDS011;9626;52.552;13.436;2023-03-11T09:09:12;7.90;;;4.57;;
18983;SDS011;9626;52.552;13.436;2023-03-11T09:11:39;6.23;;;4.70;;
18983;SDS011;9626;52.552;13.436;2023-03-11T09:14:06;5.97;;;4.20;;
18983;SDS011;9626;52.552;13.436;2023-03-11T09:16:51;5.53;;;4.10;;
18983;SDS011;9626;52.552;13.436;2023-03-11T09:19:29;6.10;;;4.53;;
18983;SDS011;9626;52.552;13.436;2023-03-11T09:22:04;9.53;;;4.50;;
18983;SDS011;9626;52.552;13.436;2023-03-11T09:24:49;5.93;;;4.20;;
18983;SDS011;9626;52.552;13.436;2023-03-11T09:27:34;8.97;;;4.33;;
18983;SDS011;9626;52.552;13.436;2023-03-11T09:30:00;7.47;;;4.07;;
18983;SDS011;9626;52.552;13.436;2023-03-11T09:32:46;5.13;;;4.17;;
18983;SDS011;9626;52.552;13.436;2023-03-11T09:35:30;6.97;;;4.40;;
18983;SDS011;9626;52.552;13.436;2023-03-11T09:38:02;5.43;;;4.50;;
18983;SDS011;9626;52.552;13.436;2023-03-11T09:43:52;5.63;;;4.20;;
18983;SDS011;9626;52.552;13.436;2023-03-11T09:53:25;4.33;;;3.93;;
18983;SDS011;9626;52.552;13.436;2023-03-11T09:56:20;6.90;;;4.50;;
18983;SDS011;9626;52.552;13.436;2023-03-11T09:59:17;6.73;;;4.57;;
18983;SDS011;9626;52.552;13.436;2023-03-11T10:02:10;5.97;;;4.60;;
18983;SDS011;9626;52.552;13.436;2023-03-11T10:04:41;7.40;;;4.33;;
18983;SDS011;9626;52.552;13.436;2023-03-11T10:07:50;6.50;;;4.63;;
18983;SDS011;9626;52.552;13.436;2023-03-11T10:10:42;4.63;;;3.97;;
18983;SDS011;9626;52.552;13.436;2023-03-11T10:13:34;5.40;;;4.30;;
18983;SDS011;9626;52.552;13.436;2023-03-11T10:16:52;5.63;;;4.20;;
18983;SDS011;9626;52.552;13.436;2023-03-11T10:25:36;5.03;;;4.23;;
18983;SDS011;9626;52.552;13.436;2023-03-11T10:28:53;4.77;;;4.30;;
18983;SDS011;9626;52.552;13.436;2023-03-11T10:31:42;5.50;;;4.20;;
18983;SDS011;9626;52.552;13.436;2023-03-11T10:34:12;5.43;;;4.40;;
18983;SDS011;9626;52.552;13.436;2023-03-11T10:40:17;4.67;;;4.27;;
18983;SDS011;9626;52.552;13.436;2023-03-11T10:43:13;5.27;;;4.73;;
18983;SDS011;9626;52.552;13.436;2023-03-11T10:45:43;5.83;;;4.50;;
18983;SDS011;9626;52.552;13.436;2023-03-11T10:48:31;4.93;;;4.37;;
18983;SDS011;9626;52.552;13.436;2023-03-11T10:51:23;5.73;;;4.60;;
18983;SDS011;9626;52.552;13.436;2023-03-11T11:00:05;6.23;;;4.73;;
18983;SDS011;9626;52.552;13.436;2023-03-11T11:02:49;6.97;;;4.33;;
18983;SDS011;9626;52.552;13.436;2023-03-11T11:05:36;8.37;;;4.80;;
18983;SDS011;9626;52.552;13.436;2023-03-11T11:08:20;5.10;;;4.60;;
18983;SDS011;9626;52.552;13.436;2023-03-11T11:11:09;6.83;;;5.33;;
18983;SDS011;9626;52.552;13.436;2023-03-11T11:14:06;5.67;;;5.00;;
18983;SDS011;9626;52.552;13.436;2023-03-11T11:16:52;7.43;;;5.40;;
18983;SDS011;9626;52.552;13.436;2023-03-11T11:19:41;7.10;;;4.73;;
18983;SDS011;9626;52.552;13.436;2023-03-11T11:22:27;5.90;;;4.70;;
18983;SDS011;9626;52.552;13.436;2023-03-11T11:25:29;7.57;;;6.20;;
18983;SDS011;9626;52.552;13.436;2023-03-11T11:28:23;6.20;;;5.10;;
18983;SDS011;9626;52.552;13.436;2023-03-11T11:31:23;6.03;;;5.40;;
18983;SDS011;9626;52.552;13.436;2023-03-11T11:37:16;6.50;;;5.43;;
18983;SDS011;9626;52.552;13.436;2023-03-11T11:40:03;7.73;;;5.90;;
18983;SDS011;9626;52.552;13.436;2023-03-11T11:43:11;6.93;;;5.40;;
18983;SDS011;9626;52.552;13.436;2023-03-11T11:46:01;8.27;;;5.73;;
18983;SDS011;9626;52.552;13.436;2023-03-11T11:52:11;8.20;;;6.40;;
18983;SDS011;9626;52.552;13.436;2023-03-11T11:55:03;8.53;;;6.53;;
18983;SDS011;9626;52.552;13.436;2023-03-11T11:57:51;8.27;;;5.97;;
18983;SDS011;9626;52.552;13.436;2023-03-11T12:00:18;7.03;;;6.17;;
18983;SDS011;9626;52.552;13.436;2023-03-11T12:06:32;6.80;;;5.93;;
18983;SDS011;9626;52.552;13.436;2023-03-11T12:12:29;9.23;;;7.17;;
18983;SDS011;9626;52.552;13.436;2023-03-11T12:15:33;8.37;;;6.47;;
18983;SDS011;9626;52.552;13.436;2023-03-11T12:18:09;7.90;;;6.30;;
18983;SDS011;9626;52.552;13.436;2023-03-11T12:20:43;8.20;;;6.50;;
18983;SDS011;9626;52.552;13.436;2023-03-11T12:25:54;7.00;;;6.20;;
18983;SDS011;9626;52.552;13.436;2023-03-11T12:31:38;6.70;;;6.00;;
18983;SDS011;9626;52.552;13.436;2023-03-11T12:34:14;7.87;;;6.40;;
18983;SDS011;9626;52.552;13.436;2023-03-11T12:36:44;7.40;;;6.30;;
18983;SDS011;9626;52.552;13.436;2023-03-11T12:39:31;7.10;;;6.20;;
18983;SDS011;9626;52.552;13.436;2023-03-11T12:42:18;8.93;;;6.20;;
18983;SDS011;9626;52.552;13.436;2023-03-11T12:44:47;8.63;;;6.63;;
18983;SDS011;9626;52.552;13.436;2023-03-11T12:47:32;7.50;;;6.47;;
18983;SDS011;9626;52.552;13.436;2023-03-11T12:53:07;7.80;;;6.27;;
18983;SDS011;9626;52.552;13.436;2023-03-11T12:55:53;6.87;;;5.30;;
18983;SDS011;9626;52.552;13.436;2023-03-11T13:08:12;6.80;;;5.57;;
18983;SDS011;9626;52.552;13.436;2023-03-11T13:10:42;7.50;;;6.30;;
18983;SDS011;9626;52.552;13.436;2023-03-11T13:19:27;8.77;;;6.20;;
18983;SDS011;9626;52.552;13.436;2023-03-11T13:23:07;6.17;;;5.37;;
18983;SDS011;9626;52.552;13.436;2023-03-11T13:26:21;9.23;;;5.67;;
18983;SDS011;9626;52.552;13.436;2023-03-11T13:28:59;7.23;;;5.77;;
18983;SDS011;9626;52.552;13.436;2023-03-11T13:36:17;9.60;;;5.93;;
18983;SDS011;9626;52.552;13.436;2023-03-11T13:41:40;9.33;;;6.27;;
18983;SDS011;9626;52.552;13.436;2023-03-11T13:46:44;7.73;;;5.80;;
18983;SDS011;9626;52.552;13.436;2023-03-11T13:51:50;8.53;;;6.33;;
18983;SDS011;9626;52.552;13.436;2023-03-11T13:54:33;9.30;;;6.63;;
18983;SDS011;9626;52.552;13.436;2023-03-11T13:57:03;8.37;;;6.43;;
18983;SDS011;9626;52.552;13.436;2023-03-11T13:59:50;8.40;;;6.40;;
18983;SDS011;9626;52.552;13.436;2023-03-11T14:02:36;9.47;;;5.87;;
18983;SDS011;9626;52.552;13.436;2023-03-11T14:05:03;6.23;;;5.63;;
18983;SDS011;9626;52.552;13.436;2023-03-11T14:07:32;7.53;;;5.37;;
18983;SDS011;9626;52.552;13.436;2023-03-11T14:13:04;8.90;;;5.20;;
18983;SDS011;9626;52.552;13.436;2023-03-11T14:18:28;4.63;;;4.10;;
18983;SDS011;9626;52.552;13.436;2023-03-11T14:20:59;6.93;;;4.90;;
18983;SDS011;9626;52.552;13.436;2023-03-11T14:23:45;5.57;;;4.60;;
18983;SDS011;9626;52.552;13.436;2023-03-11T14:29:18;5.33;;;4.10;;
18983;SDS011;9626;52.552;13.436;2023-03-11T14:32:26;6.83;;;4.53;;
18983;SDS011;9626;52.552;13.436;2023-03-11T14:35:19;7.07;;;4.20;;
18983;SDS011;9626;52.552;13.436;2023-03-11T14:37:45;4.13;;;3.73;;
18983;SDS011;9626;52.552;13.436;2023-03-11T14:40:31;5.03;;;4.33;;
18983;SDS011;9626;52.552;13.436;2023-03-11T14:43:17;4.67;;;4.00;;
18983;SDS011;9626;52.552;13.436;2023-03-11T14:46:04;4.90;;;3.30;;
18983;SDS011;9626;52.552;13.436;2023-03-11T14:48:51;6.33;;;3.43;;
18983;SDS011;9626;52.552;13.436;2023-03-11T14:51:37;3.77;;;3.47;;
18983;SDS011;9626;52.552;13.436;2023-03-11T14:54:22;4.60;;;3.90;;
18983;SDS011;9626;52.552;13.436;2023-03-11T14:57:18;4.13;;;3.53;;
18983;SDS011;9626;52.552;13.436;2023-03-11T15:00:05;5.13;;;3.80;;
18983;SDS011;9626;52.552;13.436;2023-03-11T15:03:01;5.07;;;3.97;;
18983;SDS011;9626;52.552;13.436;2023-03-11T15:05:55;5.67;;;3.73;;
18983;SDS011;9626;52.552;13.436;2023-03-11T15:09:05;4.77;;;3.20;;
18983;SDS011;9626;52.552;13.436;2023-03-11T15:11:56;4.63;;;3.70;;
18983;SDS011;9626;52.552;13.436;2023-03-11T15:14:24;6.07;;;3.63;;
18983;SDS011;9626;52.552;13.436;2023-03-11T15:17:18;5.87;;;4.00;;
18983;SDS011;9626;52.552;13.436;2023-03-11T15:20:30;4.03;;;3.50;;
18983;SDS011;9626;52.552;13.436;2023-03-11T15:23:20;3.60;;;3.23;;
18983;SDS011;9626;52.552;13.436;2023-03-11T15:26:05;5.90;;;3.80;;
18983;SDS011;9626;52.552;13.436;2023-03-11T15:29:03;4.27;;;3.30;;
18983;SDS011;9626;52.552;13.436;2023-03-11T15:31:38;3.30;;;3.00;;
18983;SDS011;9626;52.552;13.436;2023-03-11T15:34:10;4.00;;;2.90;;
18983;SDS011;9626;52.552;13.436;2023-03-11T15:37:18;5.00;;;3.13;;
18983;SDS011;9626;52.552;13.436;2023-03-11T15:39:46;3.97;;;2.87;;
18983;SDS011;9626;52.552;13.436;2023-03-11T15:42:20;3.13;;;2.83;;
18983;SDS011;9626;52.552;13.436;2023-03-11T15:45:08;3.77;;;2.77;;
18983;SDS011;9626;52.552;13.436;2023-03-11T15:47:55;4.43;;;2.80;;
18983;SDS011;9626;52.552;13.436;2023-03-11T15:50:53;5.63;;;2.93;;
18983;SDS011;9626;52.552;13.436;2023-03-11T15:53:39;3.10;;;2.23;;
18983;SDS011;9626;52.552;13.436;2023-03-11T15:56:24;3.87;;;2.60;;
18983;SDS011;9626;52.552;13.436;2023-03-11T15:59:12;2.70;;;2.50;;
18983;SDS011;9626;52.552;13.436;2023-03-11T16:01:39;3.03;;;2.60;;
18983;SDS011;9626;52.552;13.436;2023-03-11T16:04:13;3.17;;;2.60;;
18983;SDS011;9626;52.552;13.436;2023-03-11T16:06:41;2.47;;;2.27;;
18983;SDS011;9626;52.552;13.436;2023-03-11T16:09:26;2.80;;;2.43;;
18983;SDS011;9626;52.552;13.436;2023-03-11T16:11:52;3.27;;;2.63;;
18983;SDS011;9626;52.552;13.436;2023-03-11T16:14:37;3.27;;;2.77;;
18983;SDS011;9626;52.552;13.436;2023-03-11T16:17:03;3.83;;;2.70;;
18983;SDS011;9626;52.552;13.436;2023-03-11T16:19:29;4.27;;;3.03;;
18983;SDS011;9626;52.552;13.436;2023-03-11T16:21:55;9.70;;;3.53;;
18983;SDS011;9626;52.552;13.436;2023-03-11T16:24:22;3.60;;;2.90;;
18983;SDS011;9626;52.552;13.436;2023-03-11T16:27:10;4.20;;;3.17;;
18983;SDS011;9626;52.552;13.436;2023-03-11T16:29:40;3.97;;;3.10;;
18983;SDS011;9626;52.552;13.436;2023-03-11T16:32:06;3.80;;;3.03;;
18983;SDS011;9626;52.552;13.436;2023-03-11T16:34:33;3.40;;;2.80;;
18983;SDS011;9626;52.552;13.436;2023-03-11T16:36:59;4.40;;;2.53;;
18983;SDS011;9626;52.552;13.436;2023-03-11T16:39:25;6.07;;;3.47;;
18983;SDS011;9626;52.552;13.436;2023-03-11T16:42:09;3.30;;;2.73;;
18983;SDS011;9626;52.552;13.436;2023-03-11T16:44:35;3.20;;;2.57;;
18983;SDS011;9626;52.552;13.436;2023-03-11T16:47:20;4.93;;;2.90;;
18983;SDS011;9626;52.552;13.436;2023-03-11T16:49:46;4.13;;;2.80;;
18983;SDS011;9626;52.552;13.436;2023-03-11T16:52:15;4.37;;;2.57;;
18983;SDS011;9626;52.552;13.436;2023-03-11T16:54:44;6.43;;;2.70;;
18983;SDS011;9626;52.552;13.436;2023-03-11T16:57:29;4.23;;;2.80;;
18983;SDS011;9626;52.552;13.436;2023-03-11T16:59:55;7.77;;;3.33;;
18983;SDS011;9626;52.552;13.436;2023-03-11T17:02:39;6.73;;;4.13;;
18983;SDS011;9626;52.552;13.436;2023-03-11T17:05:23;4.27;;;3.03;;
18983;SDS011;9626;52.552;13.436;2023-03-11T17:08:13;4.70;;;3.30;;
18983;SDS011;9626;52.552;13.436;2023-03-11T17:11:35;3.73;;;2.70;;
18983;SDS011;9626;52.552;13.436;2023-03-11T17:14:19;4.57;;;3.50;;
18983;SDS011;9626;52.552;13.436;2023-03-11T17:17:04;3.17;;;2.37;;
18983;SDS011;9626;52.552;13.436;2023-03-11T17:19:49;8.23;;;3.53;;